createdAt,value
2023-01-21T00:02:21.941Z,-1.81
2023-01-21T00:04:48.259Z,-1.79
2023-01-21T00:07:14.536Z,-1.76
2023-01-21T00:09:40.799Z,-1.66
2023-01-21T00:12:07.068Z,-1.58
2023-01-21T00:14:33.336Z,-1.55
2023-01-21T00:16:59.606Z,-1.52
2023-01-21T00:19:25.987Z,-1.51
2023-01-21T00:21:52.242Z,-1.53
2023-01-21T00:24:18.503Z,-1.53
2023-01-21T00:26:44.818Z,-1.48
2023-01-21T00:29:11.096Z,-1.56
2023-01-21T00:31:37.457Z,-1.62
2023-01-21T00:34:03.833Z,-1.57
2023-01-21T00:36:30.088Z,-1.53
2023-01-21T00:38:56.361Z,-1.49
2023-01-21T00:41:22.618Z,-1.50
2023-01-21T00:43:48.894Z,-1.53
2023-01-21T00:46:15.206Z,-1.50
2023-01-21T00:48:41.500Z,-1.43
2023-01-21T00:51:07.836Z,-1.40
2023-01-21T00:53:34.225Z,-1.44
2023-01-21T00:56:00.511Z,-1.42
2023-01-21T00:58:26.953Z,-1.39
2023-01-21T01:00:53.309Z,-1.42
2023-01-21T01:03:19.552Z,-1.45
2023-01-21T01:05:45.833Z,-1.46
2023-01-21T01:08:12.121Z,-1.42
2023-01-21T01:10:38.400Z,-1.41
2023-01-21T01:13:04.668Z,-1.43
2023-01-21T01:15:30.935Z,-1.42
2023-01-21T01:17:57.220Z,-1.49
2023-01-21T01:20:23.481Z,-1.47
2023-01-21T01:22:49.772Z,-1.53
2023-01-21T01:25:16.044Z,-1.54
2023-01-21T01:27:42.317Z,-1.51
2023-01-21T01:30:08.573Z,-1.48
2023-01-21T01:32:34.830Z,-1.50
2023-01-21T01:35:01.123Z,-1.51
2023-01-21T01:37:27.413Z,-1.59
2023-01-21T01:39:53.808Z,-1.56
2023-01-21T01:42:20.078Z,-1.53
2023-01-21T01:44:46.349Z,-1.53
2023-01-21T01:47:12.601Z,-1.55
2023-01-21T01:49:38.895Z,-1.57
2023-01-21T01:52:05.168Z,-1.66
2023-01-21T01:54:31.452Z,-1.70
2023-01-21T01:56:57.825Z,-1.68
2023-01-21T01:59:24.100Z,-1.63
2023-01-21T02:01:50.396Z,-1.65
2023-01-21T02:04:16.671Z,-1.59
2023-01-21T02:06:42.935Z,-1.59
2023-01-21T02:09:09.200Z,-1.65
2023-01-21T02:11:35.491Z,-1.62
2023-01-21T02:14:01.748Z,-1.61
2023-01-21T02:16:28.030Z,-1.65
2023-01-21T02:18:54.301Z,-1.57
2023-01-21T02:21:20.554Z,-1.56
2023-01-21T02:23:46.816Z,-1.65
2023-01-21T02:26:13.095Z,-1.68
2023-01-21T02:28:39.375Z,-1.64
2023-01-21T02:31:05.697Z,-1.61
2023-01-21T02:33:32.048Z,-1.60
2023-01-21T02:35:58.315Z,-1.61
2023-01-21T02:38:24.577Z,-1.60
2023-01-21T02:40:50.851Z,-1.57
2023-01-21T02:43:17.145Z,-1.57
2023-01-21T02:45:43.436Z,-1.59
2023-01-21T02:48:09.991Z,-1.65
2023-01-21T02:50:36.386Z,-1.66
2023-01-21T02:53:02.961Z,-1.74
2023-01-21T02:55:29.296Z,-1.79
2023-01-21T02:57:55.563Z,-1.81
2023-01-21T03:00:21.841Z,-1.81
2023-01-21T03:02:48.166Z,-1.84
2023-01-21T03:05:14.523Z,-1.78
2023-01-21T03:07:40.779Z,-1.74
2023-01-21T03:10:07.051Z,-1.74
2023-01-21T03:12:33.313Z,-1.74
2023-01-21T03:14:59.582Z,-1.76
2023-01-21T03:17:25.850Z,-1.79
2023-01-21T03:19:52.112Z,-1.79
2023-01-21T03:22:18.371Z,-1.83
2023-01-21T03:24:44.648Z,-1.81
2023-01-21T03:27:10.922Z,-1.83
2023-01-21T03:29:37.191Z,-1.91
2023-01-21T03:32:03.459Z,-1.98
2023-01-21T03:34:29.726Z,-1.99
2023-01-21T03:36:56.009Z,-2.05
2023-01-21T03:39:22.304Z,-2.11
2023-01-21T03:41:48.560Z,-2.29
2023-01-21T03:44:14.825Z,-2.30
2023-01-21T03:46:41.109Z,-2.29
2023-01-21T03:49:07.357Z,-2.31
2023-01-21T03:51:33.655Z,-2.35
2023-01-21T03:53:59.915Z,-2.33
2023-01-21T03:56:26.183Z,-2.27
2023-01-21T03:58:52.464Z,-2.25
2023-01-21T04:01:18.854Z,-2.25
2023-01-21T04:03:45.174Z,-2.25
2023-01-21T04:06:11.485Z,-2.23
2023-01-21T04:08:37.756Z,-2.24
2023-01-21T04:11:04.031Z,-2.30
2023-01-21T04:13:30.309Z,-2.37
2023-01-21T04:15:56.605Z,-2.42
2023-01-21T04:18:22.868Z,-2.57
2023-01-21T04:20:49.152Z,-2.63
2023-01-21T04:23:15.530Z,-2.54
2023-01-21T04:25:41.814Z,-2.47
2023-01-21T04:28:08.059Z,-2.43
2023-01-21T04:30:34.362Z,-2.43
2023-01-21T04:33:00.656Z,-2.44
2023-01-21T04:35:26.945Z,-2.47
2023-01-21T04:37:53.199Z,-2.45
2023-01-21T04:40:19.448Z,-2.46
2023-01-21T04:42:45.743Z,-2.49
2023-01-21T04:45:12.027Z,-2.50
2023-01-21T04:47:38.300Z,-2.50
2023-01-21T04:50:04.599Z,-2.50
2023-01-21T04:52:30.870Z,-2.49
2023-01-21T04:54:57.139Z,-2.56
2023-01-21T04:57:23.430Z,-2.57
2023-01-21T04:59:49.720Z,-2.59
2023-01-21T05:02:15.995Z,-2.62
2023-01-21T05:04:42.258Z,-2.67
2023-01-21T05:07:08.518Z,-2.68
2023-01-21T05:09:34.788Z,-2.73
2023-01-21T05:12:01.042Z,-2.65
2023-01-21T05:14:27.309Z,-2.69
2023-01-21T05:16:53.611Z,-2.68
2023-01-21T05:19:19.947Z,-2.62
2023-01-21T05:21:46.200Z,-2.65
2023-01-21T05:24:12.571Z,-2.59
2023-01-21T05:26:38.820Z,-2.67
2023-01-21T05:29:05.073Z,-2.56
2023-01-21T05:31:31.409Z,-2.69
2023-01-21T05:33:57.761Z,-2.68
2023-01-21T05:36:24.032Z,-2.72
2023-01-21T05:38:50.282Z,-2.74
2023-01-21T05:41:16.553Z,-2.79
2023-01-21T05:43:42.816Z,-2.80
2023-01-21T05:46:09.069Z,-2.90
2023-01-21T05:48:35.357Z,-2.99
2023-01-21T05:51:01.785Z,-3.01
2023-01-21T05:53:28.141Z,-3.06
2023-01-21T05:55:54.434Z,-3.11
2023-01-21T05:58:20.744Z,-3.12
2023-01-21T06:00:47.172Z,-3.09
2023-01-21T06:03:13.530Z,-3.18
2023-01-21T06:05:39.803Z,-3.21
2023-01-21T06:08:06.122Z,-3.21
2023-01-21T06:10:32.411Z,-3.22
2023-01-21T06:12:58.694Z,-3.17
2023-01-21T06:15:24.965Z,-3.19
2023-01-21T06:17:51.227Z,-3.29
2023-01-21T06:20:17.861Z,-3.31
2023-01-21T06:22:44.228Z,-3.37
2023-01-21T06:25:10.492Z,-3.38
2023-01-21T06:27:36.776Z,-3.53
2023-01-21T06:30:03.040Z,-3.68
2023-01-21T06:32:29.433Z,-3.72
2023-01-21T06:34:55.705Z,-3.86
2023-01-21T06:37:21.972Z,-3.88
2023-01-21T06:39:48.278Z,-3.90
2023-01-21T06:42:14.724Z,-4.01
2023-01-21T06:44:41.031Z,-4.04
2023-01-21T06:47:07.325Z,-4.02
2023-01-21T06:49:33.630Z,-3.99
2023-01-21T06:51:59.910Z,-4.16
2023-01-21T06:54:27.576Z,-4.24
2023-01-21T06:56:55.029Z,-4.17
2023-01-21T06:59:21.325Z,-4.15
2023-01-21T07:01:47.704Z,-3.98
2023-01-21T07:04:14.026Z,-3.87
2023-01-21T07:06:40.321Z,-3.85
2023-01-21T07:09:06.620Z,-3.84
2023-01-21T07:11:32.912Z,-3.83
2023-01-21T07:13:59.182Z,-3.79
2023-01-21T07:16:25.496Z,-3.72
2023-01-21T07:18:51.781Z,-3.71
2023-01-21T07:21:18.046Z,-3.72
2023-01-21T07:23:44.319Z,-3.82
2023-01-21T07:26:10.568Z,-3.85
2023-01-21T07:28:36.876Z,-3.82
2023-01-21T07:31:03.309Z,-3.74
2023-01-21T07:33:29.693Z,-3.77
2023-01-21T07:35:55.997Z,-3.63
2023-01-21T07:38:22.275Z,-3.68
2023-01-21T07:40:48.524Z,-3.70
2023-01-21T07:43:14.792Z,-3.67
2023-01-21T07:45:41.076Z,-3.70
2023-01-21T07:48:07.353Z,-3.72
2023-01-21T07:50:33.635Z,-3.67
2023-01-21T07:52:59.891Z,-3.67
2023-01-21T07:55:26.145Z,-3.66
2023-01-21T07:57:52.418Z,-3.67
2023-01-21T08:00:18.700Z,-3.64
2023-01-21T08:02:45.021Z,-3.59
2023-01-21T08:05:11.339Z,-3.53
2023-01-21T08:07:37.597Z,-3.77
2023-01-21T08:10:03.861Z,-3.56
2023-01-21T08:12:30.131Z,-3.57
2023-01-21T08:14:56.389Z,-3.56
2023-01-21T08:17:22.666Z,-3.53
2023-01-21T08:19:48.951Z,-3.52
2023-01-21T08:22:15.233Z,-3.54
2023-01-21T08:24:41.675Z,-3.45
2023-01-21T08:27:07.974Z,-3.34
2023-01-21T08:29:34.271Z,-3.24
2023-01-21T08:32:00.551Z,-3.19
2023-01-21T08:34:26.824Z,-3.47
2023-01-21T08:36:53.152Z,-3.64
2023-01-21T08:39:19.423Z,-3.74
2023-01-21T08:41:45.678Z,-3.47
2023-01-21T08:44:11.956Z,-3.82
2023-01-21T08:46:38.242Z,-3.78
2023-01-21T08:49:04.530Z,-3.87
2023-01-21T08:51:30.788Z,-3.66
2023-01-21T08:53:57.045Z,-3.61
2023-01-21T08:56:23.323Z,-3.63
2023-01-21T08:58:49.577Z,-3.47
2023-01-21T09:01:15.968Z,-3.45
2023-01-21T09:03:42.275Z,-3.56
2023-01-21T09:06:08.537Z,-3.75
2023-01-21T09:08:34.823Z,-3.66
2023-01-21T09:11:01.133Z,-4.04
2023-01-21T09:13:29.264Z,-3.59
2023-01-21T09:15:55.628Z,-3.61
2023-01-21T09:18:21.886Z,-3.51
2023-01-21T09:20:48.171Z,-3.59
2023-01-21T09:23:14.434Z,-3.52
2023-01-21T09:25:40.709Z,-3.55
2023-01-21T09:28:06.967Z,-3.67
2023-01-21T09:30:33.292Z,-3.56
2023-01-21T09:32:59.555Z,-3.45
2023-01-21T09:35:25.897Z,-3.59
2023-01-21T09:37:52.190Z,-3.44
2023-01-21T09:40:18.459Z,-3.59
2023-01-21T09:42:44.744Z,-3.49
2023-01-21T09:45:11.006Z,-3.34
2023-01-21T09:47:37.311Z,-3.26
2023-01-21T09:50:03.688Z,-3.35
2023-01-21T09:52:30.009Z,-3.28
2023-01-21T09:54:56.280Z,-3.34
2023-01-21T09:57:22.529Z,-3.40
2023-01-21T09:59:48.793Z,-3.47
2023-01-21T10:02:15.077Z,-3.32
2023-01-21T10:04:41.471Z,-3.28
2023-01-21T10:07:07.781Z,-3.35
2023-01-21T10:09:34.058Z,-3.17
2023-01-21T10:12:00.323Z,-3.42
2023-01-21T10:14:26.589Z,-3.13
2023-01-21T10:16:53.013Z,-3.40
2023-01-21T10:19:19.305Z,-3.31
2023-01-21T10:21:45.585Z,-3.35
2023-01-21T10:24:11.867Z,-3.04
2023-01-21T10:26:38.159Z,-3.17
2023-01-21T10:29:04.571Z,-3.32
2023-01-21T10:31:30.961Z,-3.12
2023-01-21T10:33:57.272Z,-3.11
2023-01-21T10:36:23.548Z,-2.79
2023-01-21T10:38:49.822Z,-3.00
2023-01-21T10:41:16.083Z,-2.72
2023-01-21T10:43:42.359Z,-2.48
2023-01-21T10:46:08.625Z,-2.33
2023-01-21T10:48:34.976Z,-2.53
2023-01-21T10:51:01.301Z,-2.52
2023-01-21T10:53:27.624Z,-2.17
2023-01-21T10:55:53.923Z,-2.24
2023-01-21T10:58:20.196Z,-2.59
2023-01-21T11:00:46.488Z,-2.75
2023-01-21T11:03:12.783Z,-2.31
2023-01-21T11:05:39.071Z,-2.23
2023-01-21T11:08:05.369Z,-2.30
2023-01-21T11:10:31.625Z,-2.15
2023-01-21T11:12:57.939Z,-2.39
2023-01-21T11:15:24.217Z,-2.36
2023-01-21T11:17:50.488Z,-2.03
2023-01-21T11:20:16.765Z,-2.18
2023-01-21T11:22:43.066Z,-2.02
2023-01-21T11:25:09.341Z,-2.13
2023-01-21T11:27:35.640Z,-1.94
2023-01-21T11:30:01.919Z,-2.19
2023-01-21T11:32:28.193Z,-1.89
2023-01-21T11:34:54.457Z,-1.88
2023-01-21T11:37:20.749Z,-1.75
2023-01-21T11:39:47.051Z,-1.60
2023-01-21T11:42:13.331Z,-1.65
2023-01-21T11:44:39.608Z,-1.48
2023-01-21T11:47:05.862Z,-1.51
2023-01-21T11:49:32.143Z,-1.47
2023-01-21T11:51:58.407Z,-1.65
2023-01-21T11:54:24.683Z,-1.64
2023-01-21T11:56:50.975Z,-1.31
2023-01-21T11:59:17.228Z,-1.50
2023-01-21T12:01:43.500Z,-1.33
2023-01-21T12:04:09.820Z,-1.09
2023-01-21T12:06:37.059Z,-1.21
2023-01-21T12:09:03.392Z,-1.01
2023-01-21T12:11:29.683Z,-0.96
2023-01-21T12:13:55.977Z,-0.99
2023-01-21T12:16:22.282Z,-1.00
2023-01-21T12:18:48.561Z,-0.89
2023-01-21T12:21:14.822Z,-0.62
2023-01-21T12:23:41.113Z,-0.71
2023-01-21T12:26:07.381Z,-0.78
2023-01-21T12:28:33.665Z,-0.64
2023-01-21T12:31:00.197Z,-0.38
2023-01-21T12:33:26.551Z,-0.42
2023-01-21T12:35:52.809Z,-0.49
2023-01-21T12:38:19.170Z,-0.41
2023-01-21T12:40:45.462Z,-0.52
2023-01-21T12:43:11.719Z,-0.40
2023-01-21T12:45:37.991Z,-0.44
2023-01-21T12:48:04.395Z,-0.46
2023-01-21T12:50:30.699Z,-0.53
2023-01-21T12:52:56.983Z,-0.39
2023-01-21T12:55:23.268Z,-0.46
2023-01-21T12:57:49.528Z,-0.24
2023-01-21T13:00:16.202Z,0.18
2023-01-21T13:02:42.699Z,0.03
2023-01-21T13:05:08.960Z,0.16
2023-01-21T13:07:35.228Z,0.05
2023-01-21T13:10:01.569Z,0.31
2023-01-21T13:12:27.853Z,0.47
2023-01-21T13:14:54.164Z,0.17
2023-01-21T13:17:20.460Z,0.51
2023-01-21T13:19:46.720Z,0.81
2023-01-21T13:22:12.995Z,0.84
2023-01-21T13:24:39.304Z,0.93
2023-01-21T13:27:05.548Z,0.89
2023-01-21T13:29:31.817Z,1.24
2023-01-21T13:31:58.137Z,1.38
2023-01-21T13:34:24.451Z,1.60
2023-01-21T13:36:50.720Z,1.65
2023-01-21T13:39:16.979Z,1.02
2023-01-21T13:41:43.240Z,1.38
2023-01-21T13:44:09.485Z,1.31
2023-01-21T13:46:36.683Z,1.01
2023-01-21T13:49:04.454Z,1.29
2023-01-21T13:51:30.704Z,1.71
2023-01-21T13:53:56.989Z,1.53
2023-01-21T13:56:23.248Z,1.25
2023-01-21T13:58:49.489Z,1.42
2023-01-21T14:01:15.776Z,1.87
2023-01-21T14:03:42.056Z,2.04
2023-01-21T14:06:08.316Z,1.87
2023-01-21T14:08:34.569Z,2.15
2023-01-21T14:11:00.835Z,1.45
2023-01-21T14:13:27.095Z,1.56
2023-01-21T14:15:53.344Z,1.70
2023-01-21T14:18:19.638Z,1.66
2023-01-21T14:20:45.897Z,1.65
2023-01-21T14:23:12.156Z,1.84
2023-01-21T14:25:38.411Z,1.73
2023-01-21T14:28:04.701Z,1.90
2023-01-21T14:30:30.949Z,2.05
2023-01-21T14:32:57.185Z,2.27
2023-01-21T14:35:23.460Z,2.34
2023-01-21T14:37:49.742Z,2.35
2023-01-21T14:40:16.214Z,2.31
2023-01-21T14:42:42.559Z,2.71
2023-01-21T14:45:08.804Z,2.54
2023-01-21T14:47:35.062Z,2.16
2023-01-21T14:50:01.326Z,2.24
2023-01-21T14:52:27.645Z,2.19
2023-01-21T14:54:53.889Z,2.46
2023-01-21T14:57:20.145Z,2.36
2023-01-21T14:59:46.588Z,1.75
2023-01-21T15:02:12.934Z,1.72
2023-01-21T15:04:39.208Z,1.55
2023-01-21T15:07:05.472Z,1.80
2023-01-21T15:09:31.760Z,1.79
2023-01-21T15:11:58.037Z,1.38
2023-01-21T15:14:24.290Z,1.49
2023-01-21T15:16:50.674Z,1.49
2023-01-21T15:19:17.050Z,1.22
2023-01-21T15:21:43.344Z,1.16
2023-01-21T15:24:09.618Z,0.62
2023-01-21T15:26:35.879Z,0.85
2023-01-21T15:29:02.178Z,0.82
2023-01-21T15:31:28.505Z,0.89
2023-01-21T15:33:54.838Z,0.20
2023-01-21T15:36:21.155Z,0.54
2023-01-21T15:38:47.430Z,0.71
2023-01-21T15:41:13.682Z,0.36
2023-01-21T15:43:39.933Z,0.33
2023-01-21T15:46:06.283Z,0.20
2023-01-21T15:48:41.321Z,0.10
2023-01-21T15:51:08.234Z,-0.11
2023-01-21T15:53:34.504Z,-0.10
2023-01-21T15:56:00.776Z,0.15
2023-01-21T15:58:27.070Z,0.07
2023-01-21T16:00:53.440Z,0.21
2023-01-21T16:03:19.737Z,0.34
2023-01-21T16:05:45.999Z,0.55
2023-01-21T16:08:12.324Z,0.46
2023-01-21T16:10:38.724Z,0.17
2023-01-21T16:13:04.990Z,0.25
2023-01-21T16:15:31.312Z,0.22
2023-01-21T16:17:57.756Z,0.04
2023-01-21T16:20:24.026Z,-0.14
2023-01-21T16:22:50.288Z,0.17
2023-01-21T16:25:16.864Z,-0.36
2023-01-21T16:27:43.294Z,-0.30
2023-01-21T16:30:09.549Z,-0.53
2023-01-21T16:32:35.808Z,-0.96
2023-01-21T16:35:02.140Z,-0.83
2023-01-21T16:37:28.435Z,-0.86
2023-01-21T16:39:54.734Z,-0.77
2023-01-21T16:42:21.011Z,-0.66
2023-01-21T16:44:47.297Z,-0.84
2023-01-21T16:47:13.564Z,-1.02
2023-01-21T16:49:39.822Z,-0.96
2023-01-21T16:52:06.102Z,-1.19
2023-01-21T16:54:32.391Z,-0.98
2023-01-21T16:56:58.670Z,-1.16
2023-01-21T16:59:25.064Z,-1.05
2023-01-21T17:01:51.363Z,-1.10
2023-01-21T17:04:17.641Z,-1.19
2023-01-21T17:06:43.928Z,-1.19
2023-01-21T17:09:10.175Z,-1.00
2023-01-21T17:11:36.458Z,-1.29
2023-01-21T17:14:02.737Z,-1.40
2023-01-21T17:16:29.023Z,-1.56
2023-01-21T17:18:55.324Z,-1.71
2023-01-21T17:21:21.594Z,-1.52
2023-01-21T17:23:47.906Z,-1.47
2023-01-21T17:26:14.184Z,-1.37
2023-01-21T17:28:40.480Z,-1.38
2023-01-21T17:31:06.862Z,-1.59
2023-01-21T17:33:33.203Z,-1.47
2023-01-21T17:35:59.497Z,-1.38
2023-01-21T17:38:25.783Z,-1.38
2023-01-21T17:40:52.075Z,-1.17
2023-01-21T17:43:18.464Z,-1.49
2023-01-21T17:45:44.744Z,-1.67
2023-01-21T17:48:14.297Z,-1.81
2023-01-21T17:50:40.916Z,-1.72
2023-01-21T17:53:07.193Z,-1.53
2023-01-21T17:55:33.489Z,-1.49
2023-01-21T17:57:59.782Z,-1.36
2023-01-21T18:00:26.041Z,-1.75
2023-01-21T18:02:52.434Z,-1.53
2023-01-21T18:05:19.060Z,-1.43
2023-01-21T18:07:45.429Z,-1.52
2023-01-21T18:10:11.694Z,-1.26
2023-01-21T18:12:38.008Z,-1.14
2023-01-21T18:15:04.277Z,-1.21
2023-01-21T18:17:30.565Z,-1.43
2023-01-21T18:19:58.011Z,-1.49
2023-01-21T18:22:24.453Z,-1.49
2023-01-21T18:24:50.714Z,-1.28
2023-01-21T18:27:17.001Z,-1.09
2023-01-21T18:29:43.265Z,-1.02
2023-01-21T18:32:09.637Z,-1.15
2023-01-21T18:34:35.986Z,-1.22
2023-01-21T18:37:02.253Z,-1.29
2023-01-21T18:39:28.535Z,-1.04
2023-01-21T18:41:54.831Z,-1.28
2023-01-21T18:44:21.096Z,-1.17
2023-01-21T18:46:47.408Z,-1.06
2023-01-21T18:49:13.760Z,-1.41
2023-01-21T18:51:40.060Z,-1.09
2023-01-21T18:54:06.335Z,-1.20
2023-01-21T18:56:32.642Z,-1.41
2023-01-21T18:58:58.919Z,-1.74
2023-01-21T19:01:25.234Z,-1.77
2023-01-21T19:03:51.557Z,-1.48
2023-01-21T19:06:18.041Z,-1.28
2023-01-21T19:08:44.331Z,-1.46
2023-01-21T19:11:10.594Z,-1.60
2023-01-21T19:13:36.852Z,-1.34
2023-01-21T19:16:03.234Z,-1.34
2023-01-21T19:18:29.534Z,-1.41
2023-01-21T19:20:55.870Z,-1.66
2023-01-21T19:23:22.134Z,-1.49
2023-01-21T19:25:48.404Z,-1.42
2023-01-21T19:28:14.674Z,-1.49
2023-01-21T19:30:40.924Z,-1.61
2023-01-21T19:33:07.184Z,-1.64
2023-01-21T19:35:33.595Z,-1.66
2023-01-21T19:37:59.883Z,-1.50
2023-01-21T19:40:26.167Z,-1.21
2023-01-21T19:42:52.438Z,-1.17
2023-01-21T19:45:18.714Z,-1.32
2023-01-21T19:47:45.011Z,-1.38
2023-01-21T19:50:11.302Z,-1.54
2023-01-21T19:52:37.553Z,-1.80
2023-01-21T19:55:03.828Z,-1.81
2023-01-21T19:57:30.126Z,-2.10
2023-01-21T19:59:56.392Z,-1.77
2023-01-21T20:02:22.766Z,-2.15
2023-01-21T20:04:49.090Z,-1.87
2023-01-21T20:07:15.384Z,-1.65
2023-01-21T20:09:41.654Z,-1.83
2023-01-21T20:12:07.973Z,-1.69
2023-01-21T20:14:34.238Z,-1.98
2023-01-21T20:17:00.520Z,-1.63
2023-01-21T20:19:26.821Z,-1.92
2023-01-21T20:22:02.066Z,-1.93
2023-01-21T20:24:28.896Z,-2.07
2023-01-21T20:26:55.198Z,-2.25
2023-01-21T20:29:21.475Z,-2.15
2023-01-21T20:31:47.835Z,-2.11
2023-01-21T20:34:14.132Z,-2.23
2023-01-21T20:36:40.407Z,-2.02
2023-01-21T20:39:06.669Z,-2.33
2023-01-21T20:41:32.945Z,-2.06
2023-01-21T20:43:59.201Z,-1.99
2023-01-21T20:46:25.462Z,-2.17
2023-01-21T20:48:52.801Z,-2.44
2023-01-21T20:51:19.133Z,-2.21
2023-01-21T20:53:45.437Z,-2.10
2023-01-21T20:56:11.692Z,-2.13
2023-01-21T20:58:37.955Z,-2.07
2023-01-21T21:01:04.278Z,-2.40
2023-01-21T21:03:30.608Z,-2.03
2023-01-21T21:05:56.889Z,-2.57
2023-01-21T21:08:23.167Z,-2.32
2023-01-21T21:10:49.464Z,-2.24
2023-01-21T21:13:15.745Z,-2.39
2023-01-21T21:15:42.035Z,-2.37
2023-01-21T21:18:08.560Z,-2.11
2023-01-21T21:20:34.922Z,-2.12
2023-01-21T21:23:01.453Z,-2.56
2023-01-21T21:25:27.765Z,-2.35
2023-01-21T21:27:54.069Z,-2.43
2023-01-21T21:30:20.363Z,-2.30
2023-01-21T21:32:46.668Z,-2.40
2023-01-21T21:35:12.956Z,-2.13
2023-01-21T21:37:39.370Z,-1.85
2023-01-21T21:40:05.722Z,-1.55
2023-01-21T21:42:32.001Z,-1.65
2023-01-21T21:44:58.291Z,-1.57
2023-01-21T21:47:24.561Z,-1.60
2023-01-21T21:49:50.847Z,-1.69
2023-01-21T21:52:17.109Z,-1.47
2023-01-21T21:54:43.392Z,-1.29
2023-01-21T21:57:09.678Z,-1.36
2023-01-21T21:59:36.021Z,-1.11
2023-01-21T22:02:02.367Z,-1.06
2023-01-21T22:04:28.637Z,-1.22
2023-01-21T22:06:54.933Z,-1.44
2023-01-21T22:09:21.191Z,-1.78
2023-01-21T22:11:47.451Z,-1.75
2023-01-21T22:14:13.733Z,-1.55
2023-01-21T22:16:40.092Z,-1.63
2023-01-21T22:19:06.418Z,-1.75
2023-01-21T22:21:32.895Z,-1.82
2023-01-21T22:23:59.285Z,-1.44
2023-01-21T22:26:25.560Z,-1.93
2023-01-21T22:28:51.898Z,-1.89
2023-01-21T22:31:18.242Z,-1.87
2023-01-21T22:33:44.612Z,-1.80
2023-01-21T22:36:10.897Z,-1.84
2023-01-21T22:38:38.979Z,-2.06
2023-01-21T22:41:06.758Z,-1.82
2023-01-21T22:43:33.039Z,-1.64
2023-01-21T22:45:59.375Z,-1.67
2023-01-21T22:48:25.807Z,-1.80
2023-01-21T22:50:52.082Z,-1.90
2023-01-21T22:53:18.372Z,-1.81
2023-01-21T22:55:44.637Z,-1.75
2023-01-21T22:58:10.920Z,-1.59
2023-01-21T23:00:37.200Z,-1.91
2023-01-21T23:03:03.463Z,-1.80
2023-01-21T23:05:29.751Z,-2.00
2023-01-21T23:07:56.099Z,-2.43
2023-01-21T23:10:22.388Z,-2.44
2023-01-21T23:12:48.671Z,-2.25
2023-01-21T23:15:14.963Z,-2.31
2023-01-21T23:17:41.254Z,-2.04
2023-01-21T23:20:07.526Z,-1.86
2023-01-21T23:22:33.823Z,-1.86
2023-01-21T23:25:00.197Z,-1.71
2023-01-21T23:27:26.484Z,-1.76
2023-01-21T23:29:52.752Z,-1.62
2023-01-21T23:32:19.028Z,-1.40
2023-01-21T23:34:45.298Z,-1.71
2023-01-21T23:37:11.591Z,-1.54
2023-01-21T23:39:37.836Z,-1.65
2023-01-21T23:42:04.089Z,-1.48
2023-01-21T23:44:30.352Z,-1.74
2023-01-21T23:46:56.615Z,-1.59
2023-01-21T23:49:22.913Z,-1.79
2023-01-21T23:51:49.171Z,-1.55
2023-01-21T23:54:15.441Z,-1.59
2023-01-21T23:56:41.723Z,-1.77
2023-01-21T23:59:07.996Z,-1.69
